Buoy 51532

sailwx.info

Track history (hours):
 
Tides and Currents Weather Stations Pressure Air Temp Water Temp Dewpoint Dewpoint Depression Visibility Wind Speed Wind Dir Waves Ship Positions

Drifting buoy 51532

Last reported at 2015-Sep-03 10:17 UTC. Time now 2015-Sep-03 10:54 UTC.
Position N 34°35' W 129°33'.

Water temperature 21.4 ° C

Date/timePositionNaut miles runAvg speedWind from/ knotsBaromVisibWave heightAir tempDewpointWater temp
2015-Sep-03 10:17N 34°35' W 129°33'2 0.3 21.4
2015-Sep-03 03:17N 34°36' W 129°36'1 0.7 21.6
2015-Sep-03 02:05N 34°36' W 129°37'1 4.3 21.7
2015-Sep-03 01:54N 34°36' W 129°36'1 0.7 21.7
2015-Sep-03 00:03N 34°36' W 129°37'0 6.0 21.7
2015-Sep-03 00:00N 34°36' W 129°37'0 0.2 21.7
2015-Sep-02 21:57N 34°35' W 129°38'1 0.4 21.6
2015-Sep-02 20:11N 34°35' W 129°37'0 0.3 21.4
2015-Sep-02 18:58N 34°36' W 129°37'1 0.2 21.4
2015-Sep-02 16:09N 34°36' W 129°37'0 5.0 21.4
2015-Sep-02 16:04N 34°36' W 129°37'0 0.0 21.4
2015-Sep-02 15:59N 34°36' W 129°37'110.0 21.4
2015-Sep-02 15:56N 34°36' W 129°37'1 0.7 21.4
2015-Sep-02 14:18N 34°36' W 129°38'0 0.0 21.4
2015-Sep-02 14:13N 34°36' W 129°38'2 0.9 21.4
2015-Sep-02 12:06N 34°38' W 129°39'0 0.0 21.4
2015-Sep-02 12:03N 34°38' W 129°39'1 0.2 21.4
2015-Sep-02 05:46N 34°38' W 129°41'1 0.4 21.4
2015-Sep-02 02:06N 34°38' W 129°42'0 1.5 21.5
2015-Sep-02 01:58N 34°38' W 129°42'1 0.2 21.6
2015-Sep-01 22:09N 34°38' W 129°43'2 0.4 21.7
2015-Sep-01 16:49N 34°40' W 129°42'0 0.7 21.4
2015-Sep-01 16:17N 34°40' W 129°43'0 0.0 21.4
2015-Sep-01 16:00N 34°40' W 129°43'0 0.3 21.4
2015-Sep-01 14:49N 34°40' W 129°43'0 0.3 21.4
2015-Sep-01 13:06N 34°40' W 129°44'1 7.8 21.4
2015-Sep-01 13:02N 34°41' W 129°44'0 0.0 21.4
2015-Sep-01 12:56N 34°41' W 129°44'1 1.2 21.4
2015-Sep-01 12:16N 34°41' W 129°45'1 0.2
2015-Sep-01 04:45N 34°41' W 129°47'0 0.3 21.4
2015-Sep-01 03:09N 34°41' W 129°47'0 0.1 21.4
2015-Sep-01 02:12N 34°41' W 129°47'0 0.3 21.5
2015-Sep-01 00:51N 34°40' W 129°47'0 1.9 21.5
2015-Sep-01 00:46N 34°40' W 129°47'1 1.1 21.5
2015-Aug-31 23:59N 34°41' W 129°47'1 0.3
2015-Aug-31 19:45N 34°42' W 129°46'1 1.6 21.4
2015-Aug-31 18:54N 34°42' W 129°48'1 1.0 21.4
2015-Aug-31 18:05N 34°42' W 129°47'1 0.5 21.4
2015-Aug-31 15:13N 34°43' W 129°48'0 2.9 21.4
2015-Aug-31 15:05N 34°43' W 129°48'0 0.0 21.4
2015-Aug-31 14:53N 34°43' W 129°48'1 0.4 21.4
2015-Aug-31 13:16N 34°44' W 129°49'0 0.0 21.4
2015-Aug-31 13:07N 34°44' W 129°49'2 0.6 21.4
2015-Aug-31 09:07N 34°43' W 129°52'0 0.1
2015-Aug-31 05:47N 34°42' W 129°51'0 0.2 21.6
2015-Aug-31 04:52N 34°42' W 129°51'0 0.5 21.7
2015-Aug-31 04:01N 34°42' W 129°52'1 0.6 21.7
2015-Aug-31 02:58N 34°43' W 129°51'0 0.3 21.9
2015-Aug-31 01:59N 34°43' W 129°51'1 0.6 21.9
2015-Aug-31 00:09N 34°44' W 129°52'0 6.1 22.0
2015-Aug-31 00:06N 34°44' W 129°52'1 0.2 22.0
2015-Aug-30 20:49N 34°45' W 129°52'1 1.3 22.0
2015-Aug-30 20:00N 34°46' W 129°53'0 0.0 21.9
2015-Aug-30 18:20N 34°46' W 129°53'2 0.6 21.7
2015-Aug-30 15:00N 34°47' W 129°55'0 3.0 21.4
2015-Aug-30 14:59N 34°47' W 129°55'1 0.7 21.4
2015-Aug-30 13:19N 34°47' W 129°56'1 1.1 21.4
2015-Aug-30 12:45N 34°47' W 129°57'2 1.0 21.4
2015-Aug-30 10:57N 34°46' W 129°58'1 0.2 21.4
2015-Aug-30 06:53N 34°46' W 129°58'0 2.3 21.4
2015-Aug-30 06:47N 34°45' W 129°58'0 0.1 21.4
2015-Aug-30 06:05N 34°45' W 129°58'0 0.4 21.4
2015-Aug-30 05:04N 34°46' W 129°57'1 0.5 21.5
2015-Aug-30 03:14N 34°47' W 129°57'2 0.7 21.5
2015-Aug-30 01:00N 34°48' W 129°57'1 1.3 21.7
2015-Aug-30 00:20N 34°49' W 129°57'1 3.8 21.7
2015-Aug-30 00:00N 34°50' W 129°58'0 0.0 21.7
2015-Aug-29 23:16N 34°50' W 129°58'2 0.7 21.7
2015-Aug-29 20:57N 34°50' W 129°60'2 0.8 21.5
2015-Aug-29 18:45N 34°50' W 130°02'1 0.3 21.4
2015-Aug-29 16:04N 34°50' W 130°02'0 1.9 21.3
2015-Aug-29 15:53N 34°50' W 130°03'0 0.2 21.3
2015-Aug-29 15:10N 34°50' W 130°03'1 0.6 21.3
2015-Aug-29 14:11N 34°50' W 130°03'0 0.1 21.3
2015-Aug-29 12:58N 34°50' W 130°03'1 0.4 21.4
2015-Aug-29 11:14N 34°49' W 130°03'1 6.2 21.4
2015-Aug-29 11:08N 34°50' W 130°03'1 0.2 21.4
2015-Aug-29 05:25N 34°51' W 130°03'0 0.7 21.4
2015-Aug-29 04:42N 34°51' W 130°03'0 0.4 21.4
2015-Aug-29 03:50N 34°51' W 130°03'0 0.0 21.4
2015-Aug-29 03:45N 34°51' W 130°03'1 1.2 21.4
2015-Aug-29 03:03N 34°52' W 130°03'1 0.7 21.5
2015-Aug-29 01:10N 34°53' W 130°03'3 1.1 21.5
2015-Aug-28 22:54N 34°55' W 130°06'0 0.0 21.5
2015-Aug-28 22:48N 34°55' W 130°06'1 0.5 21.5
2015-Aug-28 21:13N 34°55' W 130°07'1 0.6 21.5
2015-Aug-28 19:03N 34°54' W 130°08'1 0.3 21.5
2015-Aug-28 15:17N 34°53' W 130°09'0 0.2 21.5
2015-Aug-28 13:46N 34°53' W 130°09'1 1.3 21.6
2015-Aug-28 13:03N 34°54' W 130°09'1 0.7 21.6
2015-Aug-28 11:19N 34°55' W 130°09'1 0.2 21.6
2015-Aug-28 07:33N 34°55' W 130°10'1 1.0 21.7
2015-Aug-28 06:45N 34°55' W 130°11'1 0.5 21.7
2015-Aug-28 05:47N 34°55' W 130°12'0 0.4 21.7
2015-Aug-28 05:12N 34°55' W 130°11'0 0.0 21.7
2015-Aug-28 05:02N 34°55' W 130°11'0 0.4 21.7
2015-Aug-28 04:13N 34°55' W 130°12'0 0.2 21.7
2015-Aug-28 03:35N 34°55' W 130°12'1 1.0 21.7
2015-Aug-28 03:01N 34°56' W 130°12'1 0.6 21.7
2015-Aug-28 01:55N 34°55' W 130°13'0 0.4 21.7
2015-Aug-28 01:21N 34°55' W 130°13'0 0.6 21.8
2015-Aug-28 00:50N 34°56' W 130°13'023.3 21.9
2015-Aug-28 00:49N 34°55' W 130°13'0 2.9 21.8
2015-Aug-28 00:41N 34°56' W 130°13'0 0.0 21.9
2015-Aug-27 23:36N 34°56' W 130°13'1 0.9 21.9
2015-Aug-27 23:01N 34°55' W 130°14'0 0.0 21.9
2015-Aug-27 22:59N 34°55' W 130°14'1 0.5 21.9
2015-Aug-27 21:15N 34°55' W 130°14'0 0.1 21.8
2015-Aug-27 17:46N 34°55' W 130°14'0 0.2 21.4
2015-Aug-27 16:52N 34°55' W 130°14'0 0.2 21.4
2015-Aug-27 15:12N 34°55' W 130°14'0 3.4 21.4
2015-Aug-27 15:07N 34°55' W 130°14'1 0.5 21.4
2015-Aug-27 13:15N 34°56' W 130°13'126.4 21.4
2015-Aug-27 13:13N 34°56' W 130°14'0 0.0 21.4
2015-Aug-27 12:12N 34°56' W 130°14'1 0.6 21.4
2015-Aug-27 09:58N 34°57' W 130°15'0 1.6 21.4
2015-Aug-27 09:52N 34°57' W 130°15'2 0.8 21.4
2015-Aug-27 07:50N 34°58' W 130°16'2 0.5 21.4
2015-Aug-27 04:06N 34°58' W 130°19'1 0.2 21.5
2015-Aug-26 23:49N 34°57' W 130°19'0 0.7 21.6
2015-Aug-26 23:17N 34°57' W 130°19'0 0.4 21.6
2015-Aug-26 23:10N 34°57' W 130°19'2 0.3 21.6
2015-Aug-26 18:00N 34°58' W 130°21'0 0.0 21.5
2015-Aug-26 15:49N 34°58' W 130°21'0 0.1 21.4
2015-Aug-26 14:14N 34°58' W 130°21'1 4.4 21.4
2015-Aug-26 14:06N 34°58' W 130°22'023.9 21.4
2015-Aug-26 14:05N 34°58' W 130°21'1 6.5 21.5
2015-Aug-26 13:59N 34°57' W 130°21'111.9 21.5
2015-Aug-26 13:54N 34°58' W 130°22'1 0.2 21.5
2015-Aug-26 10:07N 34°59' W 130°22'216.9 21.5
2015-Aug-26 10:01N 35°00' W 130°23'1 0.3 21.5
2015-Aug-26 05:50N 35°00' W 130°25'1 0.6 21.8
2015-Aug-26 04:55N 35°00' W 130°24'1 5.5 21.9
2015-Aug-26 04:47N 35°00' W 130°25'1 0.4 21.9
2015-Aug-26 02:56N 35°00' W 130°26'1 0.5 22.1
2015-Aug-26 01:17N 34°60' W 130°25'1 0.5 22.3
2015-Aug-26 00:05N 34°59' W 130°25'0 4.7 22.3
2015-Aug-26 00:00N 34°60' W 130°25'0 0.0 22.3
2015-Aug-25 23:26N 34°60' W 130°25'0 4.7 22.3
2015-Aug-25 23:25N 34°60' W 130°25'1 0.3 22.3
2015-Aug-25 20:10N 35°00' W 130°26'0 2.8 21.7
2015-Aug-25 20:04N 35°00' W 130°26'1 0.2 21.7
2015-Aug-25 17:36N 35°00' W 130°27'0 0.3 21.4
2015-Aug-25 16:01N 35°01' W 130°27'1 0.3 21.2
2015-Aug-25 14:14N 35°01' W 130°27'0 0.0 21.3
2015-Aug-25 13:03N 35°01' W 130°27'0 0.4 21.2
2015-Aug-25 12:00N 35°01' W 130°27'1 6.8 21.3
2015-Aug-25 11:55N 35°02' W 130°28'0 0.0 21.3
2015-Aug-25 11:52N 35°02' W 130°28'0 0.3 21.3
2015-Aug-25 10:15N 35°02' W 130°28'2 0.7 21.3
2015-Aug-25 06:56N 35°03' W 130°30'0 0.6 21.3
2015-Aug-25 06:11N 35°03' W 130°30'0 0.4 21.3
2015-Aug-25 05:05N 35°03' W 130°31'0 0.1 21.3
2015-Aug-25 04:28N 35°03' W 130°31'1 0.8 21.4
2015-Aug-25 03:41N 35°03' W 130°31'0 0.0 21.5
2015-Aug-25 03:35N 35°03' W 130°31'0 2.7 21.5
2015-Aug-25 03:28N 35°03' W 130°31'0 0.0 21.5
2015-Aug-25 02:04N 35°03' W 130°31'0 0.4 21.7
2015-Aug-25 01:55N 35°03' W 130°31'0 9.8 21.8
2015-Aug-25 01:52N 35°03' W 130°32'0 0.0 21.8
2015-Aug-25 01:41N 35°03' W 130°32'0 0.3 21.9
2015-Aug-25 00:27N 35°03' W 130°32'0 1.9 22.0
2015-Aug-25 00:15N 35°02' W 130°32'1 4.3 22.0
2015-Aug-25 00:07N 35°03' W 130°31'0 0.1 22.0
2015-Aug-24 21:53N 35°03' W 130°31'1 0.6 22.0
2015-Aug-24 20:14N 35°04' W 130°32'0 0.0 21.5
2015-Aug-24 18:51N 35°04' W 130°32'0 0.3 21.2
2015-Aug-24 17:57N 35°04' W 130°32'2 0.9 21.1
2015-Aug-24 16:03N 35°05' W 130°33'0 0.0 21.1
2015-Aug-24 15:09N 35°05' W 130°33'0 0.2 21.1
2015-Aug-24 12:59N 35°05' W 130°34'0 1.4
2015-Aug-24 12:48N 35°05' W 130°34'0 0.3 21.2
2015-Aug-24 12:10N 35°05' W 130°34'0 6.9 21.2
2015-Aug-24 12:07N 35°05' W 130°34'127.3 21.2
2015-Aug-24 12:04N 35°06' W 130°36'   21.2
Track history (hours):
 
Tides and Currents Weather Stations Pressure Air Temp Water Temp Dewpoint Dewpoint Depression Visibility Wind Speed Wind Dir Waves Ship Positions

Drifting buoy 51532

Last reported at 2015-Sep-03 10:17 UTC. Time now 2015-Sep-03 10:54 UTC.
Position N 34°35' W 129°33'.

Water temperature 21.4 ° C

Date/timePositionNaut miles runAvg speedWind from/ knotsBaromVisibWave heightAir tempDewpointWater temp
2015-Sep-03 10:17N 34°35' W 129°33'2 0.3 21.4
2015-Sep-03 03:17N 34°36' W 129°36'1 0.7 21.6
2015-Sep-03 02:05N 34°36' W 129°37'1 4.3 21.7
2015-Sep-03 01:54N 34°36' W 129°36'1 0.7 21.7
2015-Sep-03 00:03N 34°36' W 129°37'0 6.0 21.7
2015-Sep-03 00:00N 34°36' W 129°37'0 0.2 21.7
2015-Sep-02 21:57N 34°35' W 129°38'1 0.4 21.6
2015-Sep-02 20:11N 34°35' W 129°37'0 0.3 21.4
2015-Sep-02 18:58N 34°36' W 129°37'1 0.2 21.4
2015-Sep-02 16:09N 34°36' W 129°37'0 5.0 21.4
2015-Sep-02 16:04N 34°36' W 129°37'0 0.0 21.4
2015-Sep-02 15:59N 34°36' W 129°37'110.0 21.4
2015-Sep-02 15:56N 34°36' W 129°37'1 0.7 21.4
2015-Sep-02 14:18N 34°36' W 129°38'0 0.0 21.4
2015-Sep-02 14:13N 34°36' W 129°38'2 0.9 21.4
2015-Sep-02 12:06N 34°38' W 129°39'0 0.0 21.4
2015-Sep-02 12:03N 34°38' W 129°39'1 0.2 21.4
2015-Sep-02 05:46N 34°38' W 129°41'1 0.4 21.4
2015-Sep-02 02:06N 34°38' W 129°42'0 1.5 21.5
2015-Sep-02 01:58N 34°38' W 129°42'1 0.2 21.6
2015-Sep-01 22:09N 34°38' W 129°43'2 0.4 21.7
2015-Sep-01 16:49N 34°40' W 129°42'0 0.7 21.4
2015-Sep-01 16:17N 34°40' W 129°43'0 0.0 21.4
2015-Sep-01 16:00N 34°40' W 129°43'0 0.3 21.4
2015-Sep-01 14:49N 34°40' W 129°43'0 0.3 21.4
2015-Sep-01 13:06N 34°40' W 129°44'1 7.8 21.4
2015-Sep-01 13:02N 34°41' W 129°44'0 0.0 21.4
2015-Sep-01 12:56N 34°41' W 129°44'1 1.2 21.4
2015-Sep-01 12:16N 34°41' W 129°45'1 0.2
2015-Sep-01 04:45N 34°41' W 129°47'0 0.3 21.4
2015-Sep-01 03:09N 34°41' W 129°47'0 0.1 21.4
2015-Sep-01 02:12N 34°41' W 129°47'0 0.3 21.5
2015-Sep-01 00:51N 34°40' W 129°47'0 1.9 21.5
2015-Sep-01 00:46N 34°40' W 129°47'1 1.1 21.5
2015-Aug-31 23:59N 34°41' W 129°47'1 0.3
2015-Aug-31 19:45N 34°42' W 129°46'1 1.6 21.4
2015-Aug-31 18:54N 34°42' W 129°48'1 1.0 21.4
2015-Aug-31 18:05N 34°42' W 129°47'1 0.5 21.4
2015-Aug-31 15:13N 34°43' W 129°48'0 2.9 21.4
2015-Aug-31 15:05N 34°43' W 129°48'0 0.0 21.4
2015-Aug-31 14:53N 34°43' W 129°48'1 0.4 21.4
2015-Aug-31 13:16N 34°44' W 129°49'0 0.0 21.4
2015-Aug-31 13:07N 34°44' W 129°49'2 0.6 21.4
2015-Aug-31 09:07N 34°43' W 129°52'0 0.1
2015-Aug-31 05:47N 34°42' W 129°51'0 0.2 21.6
2015-Aug-31 04:52N 34°42' W 129°51'0 0.5 21.7
2015-Aug-31 04:01N 34°42' W 129°52'1 0.6 21.7
2015-Aug-31 02:58N 34°43' W 129°51'0 0.3 21.9
2015-Aug-31 01:59N 34°43' W 129°51'1 0.6 21.9
2015-Aug-31 00:09N 34°44' W 129°52'0 6.1 22.0
2015-Aug-31 00:06N 34°44' W 129°52'1 0.2 22.0
2015-Aug-30 20:49N 34°45' W 129°52'1 1.3 22.0
2015-Aug-30 20:00N 34°46' W 129°53'0 0.0 21.9
2015-Aug-30 18:20N 34°46' W 129°53'2 0.6 21.7
2015-Aug-30 15:00N 34°47' W 129°55'0 3.0 21.4
2015-Aug-30 14:59N 34°47' W 129°55'1 0.7 21.4
2015-Aug-30 13:19N 34°47' W 129°56'1 1.1 21.4
2015-Aug-30 12:45N 34°47' W 129°57'2 1.0 21.4
2015-Aug-30 10:57N 34°46' W 129°58'1 0.2 21.4
2015-Aug-30 06:53N 34°46' W 129°58'0 2.3 21.4
2015-Aug-30 06:47N 34°45' W 129°58'0 0.1 21.4
2015-Aug-30 06:05N 34°45' W 129°58'0 0.4 21.4
2015-Aug-30 05:04N 34°46' W 129°57'1 0.5 21.5
2015-Aug-30 03:14N 34°47' W 129°57'2 0.7 21.5
2015-Aug-30 01:00N 34°48' W 129°57'1 1.3 21.7
2015-Aug-30 00:20N 34°49' W 129°57'1 3.8 21.7
2015-Aug-30 00:00N 34°50' W 129°58'0 0.0 21.7
2015-Aug-29 23:16N 34°50' W 129°58'2 0.7 21.7
2015-Aug-29 20:57N 34°50' W 129°60'2 0.8 21.5
2015-Aug-29 18:45N 34°50' W 130°02'1 0.3 21.4
2015-Aug-29 16:04N 34°50' W 130°02'0 1.9 21.3
2015-Aug-29 15:53N 34°50' W 130°03'0 0.2 21.3
2015-Aug-29 15:10N 34°50' W 130°03'1 0.6 21.3
2015-Aug-29 14:11N 34°50' W 130°03'0 0.1 21.3
2015-Aug-29 12:58N 34°50' W 130°03'1 0.4 21.4
2015-Aug-29 11:14N 34°49' W 130°03'1 6.2 21.4
2015-Aug-29 11:08N 34°50' W 130°03'1 0.2 21.4
2015-Aug-29 05:25N 34°51' W 130°03'0 0.7 21.4
2015-Aug-29 04:42N 34°51' W 130°03'0 0.4 21.4
2015-Aug-29 03:50N 34°51' W 130°03'0 0.0 21.4
2015-Aug-29 03:45N 34°51' W 130°03'1 1.2 21.4
2015-Aug-29 03:03N 34°52' W 130°03'1 0.7 21.5
2015-Aug-29 01:10N 34°53' W 130°03'3 1.1 21.5
2015-Aug-28 22:54N 34°55' W 130°06'0 0.0 21.5
2015-Aug-28 22:48N 34°55' W 130°06'1 0.5 21.5
2015-Aug-28 21:13N 34°55' W 130°07'1 0.6 21.5
2015-Aug-28 19:03N 34°54' W 130°08'1 0.3 21.5
2015-Aug-28 15:17N 34°53' W 130°09'0 0.2 21.5
2015-Aug-28 13:46N 34°53' W 130°09'1 1.3 21.6
2015-Aug-28 13:03N 34°54' W 130°09'1 0.7 21.6
2015-Aug-28 11:19N 34°55' W 130°09'1 0.2 21.6
2015-Aug-28 07:33N 34°55' W 130°10'1 1.0 21.7
2015-Aug-28 06:45N 34°55' W 130°11'1 0.5 21.7
2015-Aug-28 05:47N 34°55' W 130°12'0 0.4 21.7
2015-Aug-28 05:12N 34°55' W 130°11'0 0.0 21.7
2015-Aug-28 05:02N 34°55' W 130°11'0 0.4 21.7
2015-Aug-28 04:13N 34°55' W 130°12'0 0.2 21.7
2015-Aug-28 03:35N 34°55' W 130°12'1 1.0 21.7
2015-Aug-28 03:01N 34°56' W 130°12'1 0.6 21.7
2015-Aug-28 01:55N 34°55' W 130°13'0 0.4 21.7
2015-Aug-28 01:21N 34°55' W 130°13'0 0.6 21.8
2015-Aug-28 00:50N 34°56' W 130°13'023.3 21.9
2015-Aug-28 00:49N 34°55' W 130°13'0 2.9 21.8
2015-Aug-28 00:41N 34°56' W 130°13'0 0.0 21.9
2015-Aug-27 23:36N 34°56' W 130°13'1 0.9 21.9
2015-Aug-27 23:01N 34°55' W 130°14'0 0.0 21.9
2015-Aug-27 22:59N 34°55' W 130°14'1 0.5 21.9
2015-Aug-27 21:15N 34°55' W 130°14'0 0.1 21.8
2015-Aug-27 17:46N 34°55' W 130°14'0 0.2 21.4
2015-Aug-27 16:52N 34°55' W 130°14'0 0.2 21.4
2015-Aug-27 15:12N 34°55' W 130°14'0 3.4 21.4
2015-Aug-27 15:07N 34°55' W 130°14'1 0.5 21.4
2015-Aug-27 13:15N 34°56' W 130°13'126.4 21.4
2015-Aug-27 13:13N 34°56' W 130°14'0 0.0 21.4
2015-Aug-27 12:12N 34°56' W 130°14'1 0.6 21.4
2015-Aug-27 09:58N 34°57' W 130°15'0 1.6 21.4
2015-Aug-27 09:52N 34°57' W 130°15'2 0.8 21.4
2015-Aug-27 07:50N 34°58' W 130°16'2 0.5 21.4
2015-Aug-27 04:06N 34°58' W 130°19'1 0.2 21.5
2015-Aug-26 23:49N 34°57' W 130°19'0 0.7 21.6
2015-Aug-26 23:17N 34°57' W 130°19'0 0.4 21.6
2015-Aug-26 23:10N 34°57' W 130°19'2 0.3 21.6
2015-Aug-26 18:00N 34°58' W 130°21'0 0.0 21.5
2015-Aug-26 15:49N 34°58' W 130°21'0 0.1 21.4
2015-Aug-26 14:14N 34°58' W 130°21'1 4.4 21.4
2015-Aug-26 14:06N 34°58' W 130°22'023.9 21.4
2015-Aug-26 14:05N 34°58' W 130°21'1 6.5 21.5
2015-Aug-26 13:59N 34°57' W 130°21'111.9 21.5
2015-Aug-26 13:54N 34°58' W 130°22'1 0.2 21.5
2015-Aug-26 10:07N 34°59' W 130°22'216.9 21.5
2015-Aug-26 10:01N 35°00' W 130°23'1 0.3 21.5
2015-Aug-26 05:50N 35°00' W 130°25'1 0.6 21.8
2015-Aug-26 04:55N 35°00' W 130°24'1 5.5 21.9
2015-Aug-26 04:47N 35°00' W 130°25'1 0.4 21.9
2015-Aug-26 02:56N 35°00' W 130°26'1 0.5 22.1
2015-Aug-26 01:17N 34°60' W 130°25'1 0.5 22.3
2015-Aug-26 00:05N 34°59' W 130°25'0 4.7 22.3
2015-Aug-26 00:00N 34°60' W 130°25'0 0.0 22.3
2015-Aug-25 23:26N 34°60' W 130°25'0 4.7 22.3
2015-Aug-25 23:25N 34°60' W 130°25'1 0.3 22.3
2015-Aug-25 20:10N 35°00' W 130°26'0 2.8 21.7
2015-Aug-25 20:04N 35°00' W 130°26'1 0.2 21.7
2015-Aug-25 17:36N 35°00' W 130°27'0 0.3 21.4
2015-Aug-25 16:01N 35°01' W 130°27'1 0.3 21.2
2015-Aug-25 14:14N 35°01' W 130°27'0 0.0 21.3
2015-Aug-25 13:03N 35°01' W 130°27'0 0.4 21.2
2015-Aug-25 12:00N 35°01' W 130°27'1 6.8 21.3
2015-Aug-25 11:55N 35°02' W 130°28'0 0.0 21.3
2015-Aug-25 11:52N 35°02' W 130°28'0 0.3 21.3
2015-Aug-25 10:15N 35°02' W 130°28'2 0.7 21.3
2015-Aug-25 06:56N 35°03' W 130°30'0 0.6 21.3
2015-Aug-25 06:11N 35°03' W 130°30'0 0.4 21.3
2015-Aug-25 05:05N 35°03' W 130°31'0 0.1 21.3
2015-Aug-25 04:28N 35°03' W 130°31'1 0.8 21.4
2015-Aug-25 03:41N 35°03' W 130°31'0 0.0 21.5
2015-Aug-25 03:35N 35°03' W 130°31'0 2.7 21.5
2015-Aug-25 03:28N 35°03' W 130°31'0 0.0 21.5
2015-Aug-25 02:04N 35°03' W 130°31'0 0.4 21.7
2015-Aug-25 01:55N 35°03' W 130°31'0 9.8 21.8
2015-Aug-25 01:52N 35°03' W 130°32'0 0.0 21.8
2015-Aug-25 01:41N 35°03' W 130°32'0 0.3 21.9
2015-Aug-25 00:27N 35°03' W 130°32'0 1.9 22.0
2015-Aug-25 00:15N 35°02' W 130°32'1 4.3 22.0
2015-Aug-25 00:07N 35°03' W 130°31'0 0.1 22.0
2015-Aug-24 21:53N 35°03' W 130°31'1 0.6 22.0
2015-Aug-24 20:14N 35°04' W 130°32'0 0.0 21.5
2015-Aug-24 18:51N 35°04' W 130°32'0 0.3 21.2
2015-Aug-24 17:57N 35°04' W 130°32'2 0.9 21.1
2015-Aug-24 16:03N 35°05' W 130°33'0 0.0 21.1
2015-Aug-24 15:09N 35°05' W 130°33'0 0.2 21.1
2015-Aug-24 12:59N 35°05' W 130°34'0 1.4
2015-Aug-24 12:48N 35°05' W 130°34'0 0.3 21.2
2015-Aug-24 12:10N 35°05' W 130°34'0 6.9 21.2
2015-Aug-24 12:07N 35°05' W 130°34'127.3 21.2
2015-Aug-24 12:04N 35°06' W 130°36'   21.2

Dump ship's entire track history